sensor_id;sensor_type;location;lat;lon;timestamp;pressure;altitude;pressure_sealevel;temperature;humidity
63883;BME280;50047;50.596;30.466;2023-04-07T00:00:57;99220.25;;;7.76;75.27
63883;BME280;50047;50.596;30.466;2023-04-07T00:03:26;99218.73;;;7.63;74.95
63883;BME280;50047;50.596;30.466;2023-04-07T00:05:55;99221.23;;;7.48;74.97
63883;BME280;50047;50.596;30.466;2023-04-07T00:08:24;99220.84;;;7.40;75.29
63883;BME280;50047;50.596;30.466;2023-04-07T00:10:53;99222.55;;;7.63;76.91
63883;BME280;50047;50.596;30.466;2023-04-07T00:13:21;99223.70;;;8.05;76.66
63883;BME280;50047;50.596;30.466;2023-04-07T00:15:50;99222.66;;;8.16;74.89
63883;BME280;50047;50.596;30.466;2023-04-07T00:18:26;99229.71;;;8.12;74.85
63883;BME280;50047;50.596;30.466;2023-04-07T00:20:54;99232.92;;;8.03;73.68
63883;BME280;50047;50.596;30.466;2023-04-07T00:23:22;99236.88;;;7.88;73.74
63883;BME280;50047;50.596;30.466;2023-04-07T00:25:51;99235.13;;;7.70;73.39
63883;BME280;50047;50.596;30.466;2023-04-07T00:28:19;99239.10;;;7.51;73.22
63883;BME280;50047;50.596;30.466;2023-04-07T00:30:52;99240.27;;;7.37;73.29
63883;BME280;50047;50.596;30.466;2023-04-07T00:33:22;99243.50;;;7.25;73.62
63883;BME280;50047;50.596;30.466;2023-04-07T00:35:51;99244.38;;;7.19;73.63
63883;BME280;50047;50.596;30.466;2023-04-07T00:38:19;99243.16;;;7.08;74.04
63883;BME280;50047;50.596;30.466;2023-04-07T00:40:47;99242.48;;;7.01;74.39
63883;BME280;50047;50.596;30.466;2023-04-07T00:43:16;99243.86;;;7.28;75.49
63883;BME280;50047;50.596;30.466;2023-04-07T00:45:46;99246.02;;;7.63;74.98
63883;BME280;50047;50.596;30.466;2023-04-07T00:48:15;99244.82;;;7.84;74.85
63883;BME280;50047;50.596;30.466;2023-04-07T00:50:44;99242.23;;;7.89;73.64
63883;BME280;50047;50.596;30.466;2023-04-07T00:53:13;99247.70;;;7.72;73.06
63883;BME280;50047;50.596;30.466;2023-04-07T00:55:42;99246.52;;;7.54;73.07
63883;BME280;50047;50.596;30.466;2023-04-07T00:58:12;99249.70;;;7.39;73.17
63883;BME280;50047;50.596;30.466;2023-04-07T01:01:08;99251.38;;;7.31;73.21
63883;BME280;50047;50.596;30.466;2023-04-07T01:03:47;99250.40;;;7.16;73.24
63883;BME280;50047;50.596;30.466;2023-04-07T01:06:19;99253.98;;;7.01;73.39
63883;BME280;50047;50.596;30.466;2023-04-07T01:08:57;99257.51;;;6.90;73.43
63883;BME280;50047;50.596;30.466;2023-04-07T01:14:03;99261.05;;;6.75;73.86
63883;BME280;50047;50.596;30.466;2023-04-07T01:16:56;99262.72;;;7.07;74.83
63883;BME280;50047;50.596;30.466;2023-04-07T01:19:52;99267.13;;;7.53;74.26
63883;BME280;50047;50.596;30.466;2023-04-07T01:22:32;99272.71;;;7.59;73.60
63883;BME280;50047;50.596;30.466;2023-04-07T01:28:14;99282.00;;;7.39;73.03
63883;BME280;50047;50.596;30.466;2023-04-07T01:30:55;99284.26;;;7.15;72.82
63883;BME280;50047;50.596;30.466;2023-04-07T01:33:27;99282.88;;;7.04;72.70
63883;BME280;50047;50.596;30.466;2023-04-07T01:36:00;99289.98;;;6.86;72.66
63883;BME280;50047;50.596;30.466;2023-04-07T01:38:30;99286.58;;;6.70;73.02
63883;BME280;50047;50.596;30.466;2023-04-07T01:40:59;99282.49;;;6.62;73.26
63883;BME280;50047;50.596;30.466;2023-04-07T01:43:30;99289.12;;;6.47;73.57
63883;BME280;50047;50.596;30.466;2023-04-07T01:46:03;99295.69;;;6.42;73.76
63883;BME280;50047;50.596;30.466;2023-04-07T01:48:34;99294.42;;;6.76;75.10
63883;BME280;50047;50.596;30.466;2023-04-07T01:51:04;99293.38;;;7.07;74.67
63883;BME280;50047;50.596;30.466;2023-04-07T01:53:34;99297.23;;;7.32;74.24
63883;BME280;50047;50.596;30.466;2023-04-07T01:56:05;99300.85;;;7.29;73.38
63883;BME280;50047;50.596;30.466;2023-04-07T01:58:36;99299.13;;;7.19;72.93
63883;BME280;50047;50.596;30.466;2023-04-07T02:01:07;99297.69;;;7.09;72.18
63883;BME280;50047;50.596;30.466;2023-04-07T02:04:21;99301.80;;;6.91;72.19
63883;BME280;50047;50.596;30.466;2023-04-07T02:07:00;99306.79;;;6.70;72.39
63883;BME280;50047;50.596;30.466;2023-04-07T02:09:37;99304.59;;;6.60;72.32
63883;BME280;50047;50.596;30.466;2023-04-07T02:12:12;99305.34;;;6.49;72.06
63883;BME280;50047;50.596;30.466;2023-04-07T02:14:46;99308.64;;;6.35;72.39
63883;BME280;50047;50.596;30.466;2023-04-07T02:17:26;99309.20;;;6.28;72.48
63883;BME280;50047;50.596;30.466;2023-04-07T02:19:56;99310.42;;;6.21;72.50
63883;BME280;50047;50.596;30.466;2023-04-07T02:22:26;99314.01;;;6.14;72.50
63883;BME280;50047;50.596;30.466;2023-04-07T02:24:56;99314.84;;;6.11;72.44
63883;BME280;50047;50.596;30.466;2023-04-07T02:27:26;99316.65;;;6.06;72.21
63883;BME280;50047;50.596;30.466;2023-04-07T02:29:55;99319.65;;;6.01;72.28
63883;BME280;50047;50.596;30.466;2023-04-07T02:32:24;99318.84;;;6.22;73.05
63883;BME280;50047;50.596;30.466;2023-04-07T02:34:52;99319.13;;;6.67;73.46
63883;BME280;50047;50.596;30.466;2023-04-07T02:37:21;99320.46;;;6.96;72.88
63883;BME280;50047;50.596;30.466;2023-04-07T02:39:50;99322.50;;;6.98;71.34
63883;BME280;50047;50.596;30.466;2023-04-07T02:42:20;99326.97;;;6.90;70.69
63883;BME280;50047;50.596;30.466;2023-04-07T02:44:49;99328.66;;;6.82;70.79
63883;BME280;50047;50.596;30.466;2023-04-07T02:47:17;99328.60;;;6.73;70.62
63883;BME280;50047;50.596;30.466;2023-04-07T02:49:46;99330.09;;;6.55;70.47
63883;BME280;50047;50.596;30.466;2023-04-07T02:52:14;99338.73;;;6.45;70.60
63883;BME280;50047;50.596;30.466;2023-04-07T02:54:45;99336.12;;;6.34;70.54
63883;BME280;50047;50.596;30.466;2023-04-07T02:57:15;99335.90;;;6.28;70.86
63883;BME280;50047;50.596;30.466;2023-04-07T02:59:44;99335.96;;;6.22;70.90
63883;BME280;50047;50.596;30.466;2023-04-07T03:02:14;99335.10;;;6.14;70.92
63883;BME280;50047;50.596;30.466;2023-04-07T03:04:43;99338.05;;;6.08;70.88
63883;BME280;50047;50.596;30.466;2023-04-07T03:07:12;99337.50;;;6.00;70.74
63883;BME280;50047;50.596;30.466;2023-04-07T03:09:43;99343.63;;;5.94;70.87
63883;BME280;50047;50.596;30.466;2023-04-07T03:12:14;99345.02;;;5.88;71.04
63883;BME280;50047;50.596;30.466;2023-04-07T03:14:43;99348.72;;;5.81;71.39
63883;BME280;50047;50.596;30.466;2023-04-07T03:17:17;99353.34;;;5.78;71.29
63883;BME280;50047;50.596;30.466;2023-04-07T03:19:49;99352.77;;;5.76;71.21
63883;BME280;50047;50.596;30.466;2023-04-07T03:22:19;99358.60;;;5.76;71.49
63883;BME280;50047;50.596;30.466;2023-04-07T03:24:50;99361.51;;;5.75;71.33
63883;BME280;50047;50.596;30.466;2023-04-07T03:27:19;99359.88;;;5.75;71.64
63883;BME280;50047;50.596;30.466;2023-04-07T03:29:51;99364.45;;;6.01;72.94
63883;BME280;50047;50.596;30.466;2023-04-07T03:32:22;99369.49;;;6.49;73.39
63883;BME280;50047;50.596;30.466;2023-04-07T03:34:51;99374.40;;;6.73;71.85
63883;BME280;50047;50.596;30.466;2023-04-07T03:37:19;99375.48;;;6.78;71.73
63883;BME280;50047;50.596;30.466;2023-04-07T03:39:48;99379.70;;;6.70;71.19
63883;BME280;50047;50.596;30.466;2023-04-07T03:42:27;99380.63;;;6.61;70.86
63883;BME280;50047;50.596;30.466;2023-04-07T03:45:00;99378.52;;;6.49;70.46
63883;BME280;50047;50.596;30.466;2023-04-07T03:47:29;99381.14;;;6.39;70.47
63883;BME280;50047;50.596;30.466;2023-04-07T03:50:01;99383.13;;;6.31;70.39
63883;BME280;50047;50.596;30.466;2023-04-07T03:52:31;99384.64;;;6.21;70.63
63883;BME280;50047;50.596;30.466;2023-04-07T03:55:06;99388.33;;;6.17;70.67
63883;BME280;50047;50.596;30.466;2023-04-07T03:57:35;99389.92;;;6.15;70.50
63883;BME280;50047;50.596;30.466;2023-04-07T04:00:04;99391.24;;;6.11;70.44
63883;BME280;50047;50.596;30.466;2023-04-07T04:02:43;99397.70;;;6.08;70.43
63883;BME280;50047;50.596;30.466;2023-04-07T04:05:15;99398.73;;;6.10;70.40
63883;BME280;50047;50.596;30.466;2023-04-07T04:07:44;99401.33;;;6.14;70.43
63883;BME280;50047;50.596;30.466;2023-04-07T04:10:14;99404.92;;;6.16;70.38
63883;BME280;50047;50.596;30.466;2023-04-07T04:12:48;99408.91;;;6.19;70.40
63883;BME280;50047;50.596;30.466;2023-04-07T04:15:19;99415.50;;;6.21;70.31
63883;BME280;50047;50.596;30.466;2023-04-07T04:17:49;99421.71;;;6.26;70.59
63883;BME280;50047;50.596;30.466;2023-04-07T04:20:18;99424.64;;;6.67;72.40
63883;BME280;50047;50.596;30.466;2023-04-07T04:22:49;99420.00;;;7.30;71.36
63883;BME280;50047;50.596;30.466;2023-04-07T04:25:18;99425.63;;;7.50;70.36
63883;BME280;50047;50.596;30.466;2023-04-07T04:27:49;99428.10;;;7.53;69.94
63883;BME280;50047;50.596;30.466;2023-04-07T04:30:21;99427.26;;;7.51;69.54
63883;BME280;50047;50.596;30.466;2023-04-07T04:32:52;99428.10;;;7.52;69.18
63883;BME280;50047;50.596;30.466;2023-04-07T04:35:33;99430.82;;;7.52;68.72
63883;BME280;50047;50.596;30.466;2023-04-07T04:38:10;99435.91;;;7.50;68.14
63883;BME280;50047;50.596;30.466;2023-04-07T04:40:47;99441.79;;;7.47;68.13
63883;BME280;50047;50.596;30.466;2023-04-07T04:43:17;99443.73;;;7.53;67.84
63883;BME280;50047;50.596;30.466;2023-04-07T04:45:46;99450.30;;;7.64;67.51
63883;BME280;50047;50.596;30.466;2023-04-07T04:48:15;99453.23;;;7.76;66.82
63883;BME280;50047;50.596;30.466;2023-04-07T04:50:45;99454.06;;;7.85;66.35
63883;BME280;50047;50.596;30.466;2023-04-07T04:53:19;99457.56;;;8.00;66.48
63883;BME280;50047;50.596;30.466;2023-04-07T04:56:00;99462.05;;;8.13;66.01
63883;BME280;50047;50.596;30.466;2023-04-07T04:58:49;99464.17;;;8.29;65.39
63883;BME280;50047;50.596;30.466;2023-04-07T05:01:29;99468.77;;;8.49;65.09
63883;BME280;50047;50.596;30.466;2023-04-07T05:04:12;99470.64;;;8.71;64.69
63883;BME280;50047;50.596;30.466;2023-04-07T05:06:45;99474.08;;;8.89;63.68
63883;BME280;50047;50.596;30.466;2023-04-07T05:09:15;99475.48;;;9.07;63.59
63883;BME280;50047;50.596;30.466;2023-04-07T05:11:46;99477.82;;;9.14;63.23
63883;BME280;50047;50.596;30.466;2023-04-07T05:14:15;99484.34;;;9.14;64.15
63883;BME280;50047;50.596;30.466;2023-04-07T05:16:47;99487.36;;;9.10;63.48
63883;BME280;50047;50.596;30.466;2023-04-07T05:19:20;99492.38;;;9.09;63.60
63883;BME280;50047;50.596;30.466;2023-04-07T05:21:50;99492.78;;;9.06;63.30
63883;BME280;50047;50.596;30.466;2023-04-07T05:24:19;99499.35;;;9.06;63.53
63883;BME280;50047;50.596;30.466;2023-04-07T05:26:53;99500.19;;;9.21;63.93
63883;BME280;50047;50.596;30.466;2023-04-07T05:29:22;99510.35;;;9.34;62.57
63883;BME280;50047;50.596;30.466;2023-04-07T05:31:51;99513.11;;;9.63;62.12
63883;BME280;50047;50.596;30.466;2023-04-07T05:34:20;99519.95;;;9.93;62.02
63883;BME280;50047;50.596;30.466;2023-04-07T05:36:51;99514.84;;;10.19;61.78
63883;BME280;50047;50.596;30.466;2023-04-07T05:39:21;99518.27;;;10.41;60.25
63883;BME280;50047;50.596;30.466;2023-04-07T05:41:51;99523.04;;;10.76;60.37
63883;BME280;50047;50.596;30.466;2023-04-07T05:44:21;99528.81;;;11.16;58.71
63883;BME280;50047;50.596;30.466;2023-04-07T05:46:50;99527.95;;;11.50;57.99
63883;BME280;50047;50.596;30.466;2023-04-07T05:49:20;99531.49;;;11.88;57.20
63883;BME280;50047;50.596;30.466;2023-04-07T05:51:53;99533.17;;;12.33;55.80
63883;BME280;50047;50.596;30.466;2023-04-07T05:54:21;99538.00;;;12.92;55.15
63883;BME280;50047;50.596;30.466;2023-04-07T05:56:50;99539.88;;;13.65;54.27
63883;BME280;50047;50.596;30.466;2023-04-07T05:59:20;99543.52;;;14.47;53.46
63883;BME280;50047;50.596;30.466;2023-04-07T06:01:56;99542.70;;;15.37;50.62
63883;BME280;50047;50.596;30.466;2023-04-07T06:04:26;99542.30;;;16.21;49.84
63883;BME280;50047;50.596;30.466;2023-04-07T06:06:54;99542.91;;;16.91;50.01
63883;BME280;50047;50.596;30.466;2023-04-07T06:09:25;99546.79;;;17.51;48.39
63883;BME280;50047;50.596;30.466;2023-04-07T06:11:55;99548.67;;;18.14;46.98
63883;BME280;50047;50.596;30.466;2023-04-07T06:14:24;99552.40;;;18.48;46.62
63883;BME280;50047;50.596;30.466;2023-04-07T06:16:54;99558.69;;;18.60;44.86
63883;BME280;50047;50.596;30.466;2023-04-07T06:19:26;99562.30;;;18.40;46.89
63883;BME280;50047;50.596;30.466;2023-04-07T06:21:54;99561.45;;;18.01;48.31
63883;BME280;50047;50.596;30.466;2023-04-07T06:24:23;99562.85;;;17.61;48.23
63883;BME280;50047;50.596;30.466;2023-04-07T06:26:53;99564.12;;;17.14;46.65
63883;BME280;50047;50.596;30.466;2023-04-07T06:29:21;99566.58;;;16.67;48.63
63883;BME280;50047;50.596;30.466;2023-04-07T06:31:51;99568.16;;;16.15;47.62
63883;BME280;50047;50.596;30.466;2023-04-07T06:34:20;99570.88;;;15.72;49.99
63883;BME280;50047;50.596;30.466;2023-04-07T06:36:48;99573.17;;;15.41;50.11
63883;BME280;50047;50.596;30.466;2023-04-07T06:39:18;99578.73;;;15.14;49.57
63883;BME280;50047;50.596;30.466;2023-04-07T06:41:47;99580.55;;;14.85;49.77
63883;BME280;50047;50.596;30.466;2023-04-07T06:44:15;99582.79;;;14.64;49.79
63883;BME280;50047;50.596;30.466;2023-04-07T06:46:43;99585.41;;;14.40;50.19
63883;BME280;50047;50.596;30.466;2023-04-07T06:49:18;99585.39;;;14.15;50.58
63883;BME280;50047;50.596;30.466;2023-04-07T06:51:46;99589.77;;;14.00;50.00
63883;BME280;50047;50.596;30.466;2023-04-07T06:54:15;99592.32;;;13.77;49.83
63883;BME280;50047;50.596;30.466;2023-04-07T06:56:43;99593.69;;;13.65;50.65
63883;BME280;50047;50.596;30.466;2023-04-07T06:59:12;99596.52;;;13.57;50.52
63883;BME280;50047;50.596;30.466;2023-04-07T07:01:40;99597.16;;;13.51;51.41
63883;BME280;50047;50.596;30.466;2023-04-07T07:04:09;99600.92;;;13.34;50.66
63883;BME280;50047;50.596;30.466;2023-04-07T07:06:38;99598.64;;;13.28;50.38
63883;BME280;50047;50.596;30.466;2023-04-07T07:09:07;99596.14;;;13.12;50.65
63883;BME280;50047;50.596;30.466;2023-04-07T07:11:43;99597.64;;;13.08;51.59
63883;BME280;50047;50.596;30.466;2023-04-07T07:14:12;99598.15;;;13.02;51.13
63883;BME280;50047;50.596;30.466;2023-04-07T07:16:40;99600.64;;;12.95;51.13
63883;BME280;50047;50.596;30.466;2023-04-07T07:19:16;99602.31;;;12.82;51.88
63883;BME280;50047;50.596;30.466;2023-04-07T07:21:45;99605.66;;;12.65;51.67
63883;BME280;50047;50.596;30.466;2023-04-07T07:24:14;99610.19;;;12.56;52.23
63883;BME280;50047;50.596;30.466;2023-04-07T07:26:43;99608.52;;;12.49;52.38
63883;BME280;50047;50.596;30.466;2023-04-07T07:29:12;99607.14;;;12.43;52.53
63883;BME280;50047;50.596;30.466;2023-04-07T07:31:42;99608.86;;;12.35;52.78
63883;BME280;50047;50.596;30.466;2023-04-07T07:34:10;99606.03;;;12.26;52.93
63883;BME280;50047;50.596;30.466;2023-04-07T07:36:39;99610.80;;;12.25;52.80
63883;BME280;50047;50.596;30.466;2023-04-07T07:39:08;99611.51;;;12.23;53.05
63883;BME280;50047;50.596;30.466;2023-04-07T07:41:36;99613.59;;;12.26;52.86
63883;BME280;50047;50.596;30.466;2023-04-07T07:44:06;99611.23;;;12.26;53.02
63883;BME280;50047;50.596;30.466;2023-04-07T07:46:35;99610.89;;;12.25;53.21
63883;BME280;50047;50.596;30.466;2023-04-07T07:49:05;99612.57;;;12.25;53.33
63883;BME280;50047;50.596;30.466;2023-04-07T07:51:33;99617.64;;;12.24;53.07
63883;BME280;50047;50.596;30.466;2023-04-07T07:54:02;99622.30;;;12.20;53.14
63883;BME280;50047;50.596;30.466;2023-04-07T07:56:30;99623.14;;;12.16;52.78
63883;BME280;50047;50.596;30.466;2023-04-07T07:58:59;99625.40;;;12.07;52.88
63883;BME280;50047;50.596;30.466;2023-04-07T08:01:28;99626.45;;;11.95;53.26
63883;BME280;50047;50.596;30.466;2023-04-07T08:03:57;99623.98;;;11.85;53.11
63883;BME280;50047;50.596;30.466;2023-04-07T08:06:26;99623.79;;;11.78;53.46
63883;BME280;50047;50.596;30.466;2023-04-07T08:08:57;99622.81;;;11.74;53.45
63883;BME280;50047;50.596;30.466;2023-04-07T08:11:26;99626.09;;;11.75;54.01
63883;BME280;50047;50.596;30.466;2023-04-07T08:13:55;99629.67;;;11.83;53.89
63883;BME280;50047;50.596;30.466;2023-04-07T08:16:24;99625.19;;;11.79;53.71
63883;BME280;50047;50.596;30.466;2023-04-07T08:18:54;99628.52;;;11.74;53.78
63883;BME280;50047;50.596;30.466;2023-04-07T08:21:22;99627.32;;;11.75;54.16
63883;BME280;50047;50.596;30.466;2023-04-07T08:23:52;99628.00;;;11.68;53.68
63883;BME280;50047;50.596;30.466;2023-04-07T08:26:20;99629.13;;;11.70;54.08
63883;BME280;50047;50.596;30.466;2023-04-07T08:28:52;99630.23;;;11.70;53.77
63883;BME280;50047;50.596;30.466;2023-04-07T08:31:21;99628.94;;;11.67;53.89
63883;BME280;50047;50.596;30.466;2023-04-07T08:33:49;99633.13;;;11.70;54.14
63883;BME280;50047;50.596;30.466;2023-04-07T08:36:24;99633.46;;;11.71;54.27
63883;BME280;50047;50.596;30.466;2023-04-07T08:38:53;99636.80;;;11.54;54.16
63883;BME280;50047;50.596;30.466;2023-04-07T08:41:39;99642.70;;;11.31;54.21
63883;BME280;50047;50.596;30.466;2023-04-07T08:44:09;99636.23;;;11.00;54.80
63883;BME280;50047;50.596;30.466;2023-04-07T08:46:38;99640.98;;;10.62;55.31
63883;BME280;50047;50.596;30.466;2023-04-07T08:49:09;99639.45;;;10.48;56.07
63883;BME280;50047;50.596;30.466;2023-04-07T08:51:44;99642.72;;;10.57;56.14
63883;BME280;50047;50.596;30.466;2023-04-07T08:54:16;99643.02;;;10.61;55.95
63883;BME280;50047;50.596;30.466;2023-04-07T08:56:52;99648.76;;;10.72;56.14
63883;BME280;50047;50.596;30.466;2023-04-07T08:59:20;99649.30;;;10.82;56.11
63883;BME280;50047;50.596;30.466;2023-04-07T09:01:54;99654.14;;;10.85;56.09
63883;BME280;50047;50.596;30.466;2023-04-07T09:04:23;99652.56;;;10.86;56.14
63883;BME280;50047;50.596;30.466;2023-04-07T09:06:52;99651.98;;;10.86;56.19
63883;BME280;50047;50.596;30.466;2023-04-07T09:09:21;99652.83;;;10.89;55.93
63883;BME280;50047;50.596;30.466;2023-04-07T09:11:52;99658.07;;;10.81;55.82
63883;BME280;50047;50.596;30.466;2023-04-07T09:14:20;99655.42;;;10.77;56.48
63883;BME280;50047;50.596;30.466;2023-04-07T09:16:49;99656.83;;;10.87;56.23
63883;BME280;50047;50.596;30.466;2023-04-07T09:19:22;99658.61;;;10.93;55.98
63883;BME280;50047;50.596;30.466;2023-04-07T09:21:52;99658.93;;;10.91;56.35
63883;BME280;50047;50.596;30.466;2023-04-07T09:24:22;99660.23;;;10.90;56.09
63883;BME280;50047;50.596;30.466;2023-04-07T09:27:15;99658.33;;;10.82;56.21
63883;BME280;50047;50.596;30.466;2023-04-07T09:29:48;99659.73;;;10.88;56.47
63883;BME280;50047;50.596;30.466;2023-04-07T09:32:36;99659.59;;;10.94;56.29
63883;BME280;50047;50.596;30.466;2023-04-07T09:35:08;99659.84;;;10.96;56.04
63883;BME280;50047;50.596;30.466;2023-04-07T09:37:38;99666.54;;;11.01;56.22
63883;BME280;50047;50.596;30.466;2023-04-07T09:40:07;99668.57;;;10.98;56.26
63883;BME280;50047;50.596;30.466;2023-04-07T09:42:44;99668.03;;;11.00;56.24
63883;BME280;50047;50.596;30.466;2023-04-07T09:45:23;99668.98;;;10.98;56.17
63883;BME280;50047;50.596;30.466;2023-04-07T09:48:22;99669.03;;;10.85;56.84
63883;BME280;50047;50.596;30.466;2023-04-07T09:51:04;99671.71;;;10.88;56.63
63883;BME280;50047;50.596;30.466;2023-04-07T09:53:47;99672.96;;;10.91;56.70
63883;BME280;50047;50.596;30.466;2023-04-07T09:56:19;99672.45;;;10.83;56.43
63883;BME280;50047;50.596;30.466;2023-04-07T09:58:50;99670.59;;;10.67;56.65
63883;BME280;50047;50.596;30.466;2023-04-07T10:01:21;99668.61;;;10.69;56.89
63883;BME280;50047;50.596;30.466;2023-04-07T10:03:50;99667.64;;;10.73;56.97
63883;BME280;50047;50.596;30.466;2023-04-07T10:06:20;99670.11;;;10.81;56.88
63883;BME280;50047;50.596;30.466;2023-04-07T10:08:49;99674.44;;;10.83;56.81
63883;BME280;50047;50.596;30.466;2023-04-07T10:11:19;99674.55;;;10.90;56.87
63883;BME280;50047;50.596;30.466;2023-04-07T10:13:48;99677.23;;;10.98;56.75
63883;BME280;50047;50.596;30.466;2023-04-07T10:16:20;99677.79;;;10.96;56.88
63883;BME280;50047;50.596;30.466;2023-04-07T10:18:51;99676.58;;;10.99;56.72
63883;BME280;50047;50.596;30.466;2023-04-07T10:21:21;99670.05;;;11.05;56.66
63883;BME280;50047;50.596;30.466;2023-04-07T10:26:33;99673.86;;;11.15;56.81
63883;BME280;50047;50.596;30.466;2023-04-07T10:29:05;99685.11;;;11.10;56.88
63883;BME280;50047;50.596;30.466;2023-04-07T10:31:37;99686.46;;;11.06;57.17
63883;BME280;50047;50.596;30.466;2023-04-07T10:34:11;99684.52;;;11.06;56.97
63883;BME280;50047;50.596;30.466;2023-04-07T10:37:10;99687.17;;;11.03;57.03
63883;BME280;50047;50.596;30.466;2023-04-07T10:39:40;99685.88;;;11.06;57.35
63883;BME280;50047;50.596;30.466;2023-04-07T10:45:09;99686.47;;;10.99;57.15
63883;BME280;50047;50.596;30.466;2023-04-07T10:50:25;99685.71;;;11.04;56.94
63883;BME280;50047;50.596;30.466;2023-04-07T10:53:12;99684.83;;;11.10;56.82
63883;BME280;50047;50.596;30.466;2023-04-07T10:55:45;99680.85;;;11.14;56.86
63883;BME280;50047;50.596;30.466;2023-04-07T10:58:27;99682.54;;;11.22;56.81
63883;BME280;50047;50.596;30.466;2023-04-07T11:03:32;99679.41;;;11.29;56.88
63883;BME280;50047;50.596;30.466;2023-04-07T11:06:06;99677.84;;;11.33;56.55
63883;BME280;50047;50.596;30.466;2023-04-07T11:08:46;99677.13;;;11.30;56.84
63883;BME280;50047;50.596;30.466;2023-04-07T11:11:36;99676.98;;;11.35;56.55
63883;BME280;50047;50.596;30.466;2023-04-07T11:14:06;99679.95;;;11.42;56.56
63883;BME280;50047;50.596;30.466;2023-04-07T11:16:39;99680.88;;;11.40;56.24
63883;BME280;50047;50.596;30.466;2023-04-07T11:19:11;99678.17;;;11.39;56.25
63883;BME280;50047;50.596;30.466;2023-04-07T11:21:40;99676.34;;;11.41;56.28
63883;BME280;50047;50.596;30.466;2023-04-07T11:24:08;99676.48;;;11.40;56.06
63883;BME280;50047;50.596;30.466;2023-04-07T11:26:39;99675.08;;;11.40;55.77
63883;BME280;50047;50.596;30.466;2023-04-07T11:29:07;99676.64;;;11.40;55.99
63883;BME280;50047;50.596;30.466;2023-04-07T11:31:37;99679.02;;;11.44;55.59
63883;BME280;50047;50.596;30.466;2023-04-07T11:34:06;99680.41;;;11.44;56.14
63883;BME280;50047;50.596;30.466;2023-04-07T11:36:38;99679.75;;;11.45;56.08
63883;BME280;50047;50.596;30.466;2023-04-07T11:39:20;99675.70;;;11.44;56.04
63883;BME280;50047;50.596;30.466;2023-04-07T11:41:49;99674.86;;;11.45;56.38
63883;BME280;50047;50.596;30.466;2023-04-07T11:44:18;99674.77;;;11.46;56.28
63883;BME280;50047;50.596;30.466;2023-04-07T11:46:54;99673.52;;;11.47;56.44
63883;BME280;50047;50.596;30.466;2023-04-07T11:49:26;99679.08;;;11.44;56.54
63883;BME280;50047;50.596;30.466;2023-04-07T11:52:04;99676.20;;;11.42;56.56
63883;BME280;50047;50.596;30.466;2023-04-07T11:54:44;99673.16;;;11.43;55.72
63883;BME280;50047;50.596;30.466;2023-04-07T11:57:27;99674.34;;;11.45;55.32
63883;BME280;50047;50.596;30.466;2023-04-07T12:00:07;99671.92;;;11.50;55.46
63883;BME280;50047;50.596;30.466;2023-04-07T12:02:37;99669.34;;;11.58;55.58
63883;BME280;50047;50.596;30.466;2023-04-07T12:05:05;99669.56;;;11.58;54.44
63883;BME280;50047;50.596;30.466;2023-04-07T12:07:37;99669.63;;;11.59;54.32
63883;BME280;50047;50.596;30.466;2023-04-07T12:10:22;99670.48;;;11.64;53.94
63883;BME280;50047;50.596;30.466;2023-04-07T12:12:54;99664.59;;;11.70;54.14
63883;BME280;50047;50.596;30.466;2023-04-07T12:15:25;99665.39;;;11.73;53.82
63883;BME280;50047;50.596;30.466;2023-04-07T12:17:53;99664.79;;;11.74;53.81
63883;BME280;50047;50.596;30.466;2023-04-07T12:20:26;99667.70;;;11.79;53.61
63883;BME280;50047;50.596;30.466;2023-04-07T12:22:57;99665.45;;;11.78;53.81
63883;BME280;50047;50.596;30.466;2023-04-07T12:25:26;99664.11;;;11.84;53.57
63883;BME280;50047;50.596;30.466;2023-04-07T12:28:00;99664.50;;;11.88;53.59
63883;BME280;50047;50.596;30.466;2023-04-07T12:30:29;99664.40;;;11.92;53.37
63883;BME280;50047;50.596;30.466;2023-04-07T12:32:58;99665.02;;;11.93;53.55
63883;BME280;50047;50.596;30.466;2023-04-07T12:35:26;99666.42;;;11.97;53.51
63883;BME280;50047;50.596;30.466;2023-04-07T12:37:55;99664.99;;;11.99;53.03
63883;BME280;50047;50.596;30.466;2023-04-07T12:40:26;99664.30;;;12.05;53.07
63883;BME280;50047;50.596;30.466;2023-04-07T12:42:54;99660.27;;;12.05;52.22
63883;BME280;50047;50.596;30.466;2023-04-07T12:45:25;99662.77;;;12.00;51.89
63883;BME280;50047;50.596;30.466;2023-04-07T12:47:54;99659.89;;;12.00;52.57
63883;BME280;50047;50.596;30.466;2023-04-07T12:50:23;99663.04;;;12.07;52.45
63883;BME280;50047;50.596;30.466;2023-04-07T12:52:52;99665.80;;;12.13;52.62
63883;BME280;50047;50.596;30.466;2023-04-07T12:55:22;99663.06;;;12.14;51.89
63883;BME280;50047;50.596;30.466;2023-04-07T12:57:50;99663.98;;;12.18;52.03
63883;BME280;50047;50.596;30.466;2023-04-07T13:00:19;99661.21;;;12.20;52.19
63883;BME280;50047;50.596;30.466;2023-04-07T13:02:48;99663.67;;;12.22;52.23
63883;BME280;50047;50.596;30.466;2023-04-07T13:05:17;99662.34;;;12.25;51.94
63883;BME280;50047;50.596;30.466;2023-04-07T13:07:48;99661.95;;;12.27;51.53
63883;BME280;50047;50.596;30.466;2023-04-07T13:10:17;99661.26;;;12.34;51.61
63883;BME280;50047;50.596;30.466;2023-04-07T13:12:47;99661.84;;;12.40;51.72
63883;BME280;50047;50.596;30.466;2023-04-07T13:15:16;99665.39;;;12.41;50.97
63883;BME280;50047;50.596;30.466;2023-04-07T13:17:45;99664.75;;;12.44;50.95
63883;BME280;50047;50.596;30.466;2023-04-07T13:20:14;99665.77;;;12.47;50.89
63883;BME280;50047;50.596;30.466;2023-04-07T13:22:47;99664.58;;;12.51;51.04
63883;BME280;50047;50.596;30.466;2023-04-07T13:25:33;99663.81;;;12.56;51.27
63883;BME280;50047;50.596;30.466;2023-04-07T13:28:02;99658.60;;;12.56;51.20
63883;BME280;50047;50.596;30.466;2023-04-07T13:30:30;99660.27;;;12.55;51.09
63883;BME280;50047;50.596;30.466;2023-04-07T13:32:59;99654.64;;;12.60;51.38
63883;BME280;50047;50.596;30.466;2023-04-07T13:35:28;99654.98;;;12.60;51.79